Josephine Anne — WDD9858 — position and weather

sailwx.info

Track history (hours):
 
Tides and Currents Weather Stations Pressure Air Temp Water Temp Dewpoint Dewpoint Depression Visibility Wind Speed Wind Dir Waves Ship Positions

Josephine Anne

Owner: E.N. Bisso & Son, Inc., New Orleans, LA. More information available from US FCC via Universal Licensing System and Coast Guard Vessel Documentation Center.

Last reported at 2016-May-24 13:34 UTC. Time now 2016-May-24 13:53 UTC.
Position N 29°57' W 090°01'.

Length 29 m; draft 4.3 m.

Type: Tug. MMSI: 367317270.

Date/timePositionNaut miles runAvg speedWind from/ knotsBaromVisibWave heightAir tempDewpointWater temp
2016-May-24 13:34N 29°57' W 090°01'0 0.0
2016-May-24 12:33N 29°57' W 090°01'4 3.9
2016-May-24 11:33N 29°55' W 089°57'1 0.5
2016-May-24 10:33N 29°55' W 089°56'0 0.4
2016-May-24 09:34N 29°55' W 089°57'0 0.2
2016-May-24 08:26N 29°55' W 089°57'0 0.6
2016-May-24 07:33N 29°55' W 089°56'4 0.3
2016-May-23 20:19N 29°52' W 089°58'4 5.8
2016-May-23 19:34N 29°48' W 090°01'1 0.7
2016-May-23 18:30N 29°47' W 090°01'8 1.9
2016-May-23 14:12N 29°53' W 089°54'4 4.2
2016-May-23 13:19N 29°53' W 089°58'4 0.2
2016-May-22 09:34N 29°57' W 089°60'6 6.3
2016-May-22 08:33N 29°54' W 090°07'8 0.3
2016-May-21 06:26N 29°49' W 090°00'5 0.7
2016-May-20 23:30N 29°52' W 089°57'3 0.9
2016-May-20 19:28N 29°56' W 089°58'0 0.0
2016-May-20 18:33N 29°56' W 089°58'3 3.1
2016-May-20 17:33N 29°53' W 089°58'2 0.5
2016-May-20 14:28N 29°51' W 089°59'5 5.5
2016-May-20 13:33N 29°56' W 089°59'0 0.0
2016-May-20 12:33N 29°56' W 089°59'0 0.1
2016-May-20 11:33N 29°56' W 089°59'2 1.9
2016-May-20 10:33N 29°57' W 090°01'0 0.0
2016-May-20 09:33N 29°57' W 090°01'0 0.0
2016-May-20 08:33N 29°57' W 090°01'0 0.0
2016-May-20 07:33N 29°57' W 090°01'5 4.7
2016-May-20 06:33N 29°55' W 089°56'1 1.1
2016-May-20 05:33N 29°55' W 089°55'7 0.7
2016-May-19 19:33N 29°50' W 089°60'6 6.3
2016-May-19 18:34N 29°55' W 089°57'4 4.1
2016-May-19 17:34N 29°57' W 090°01'0 0.0
2016-May-19 16:34N 29°57' W 090°01'0 0.0
2016-May-19 15:34N 29°57' W 090°01'4 4.1
2016-May-19 14:34N 29°55' W 089°57'0 0.3
2016-May-19 13:33N 29°55' W 089°56'3 0.4
2016-May-19 07:15N 29°53' W 089°54'5 2.7
2016-May-19 05:32N 29°51' W 089°59'2 0.2
2016-May-18 17:33N 29°53' W 089°58'3 3.0
2016-May-18 16:34N 29°55' W 089°56'3 2.9
2016-May-18 15:33N 29°56' W 089°59'0 0.4
2016-May-18 14:33N 29°56' W 089°59'0 0.4
2016-May-18 13:33N 29°56' W 089°59'4 3.8
2016-May-18 12:33N 29°56' W 090°04'1 1.4
2016-May-18 11:33N 29°55' W 090°04'0 0.0
2016-May-18 10:33N 29°55' W 090°04'0 0.0
2016-May-18 09:33N 29°55' W 090°04'0 0.0
2016-May-18 08:34N 29°55' W 090°04'0 0.0
2016-May-18 07:33N 29°55' W 090°04'0 0.0
2016-May-18 06:33N 29°55' W 090°04'1 1.3
2016-May-18 05:33N 29°55' W 090°06'1 0.8
2016-May-18 04:33N 29°55' W 090°05'1 0.5
2016-May-18 03:33N 29°55' W 090°04'0 0.0
2016-May-18 02:33N 29°55' W 090°04'2 1.8
2016-May-18 01:33N 29°57' W 090°04'2 1.5
2016-May-18 00:33N 29°57' W 090°02'3 3.0
2016-May-17 23:33N 29°55' W 090°04'0 0.0
2016-May-17 22:33N 29°55' W 090°04'4 4.5
2016-May-17 21:33N 29°57' W 090°09'0 0.2
2016-May-17 19:07N 29°57' W 090°09'4 6.3
2016-May-17 18:33N 29°55' W 090°05'5 4.5
2016-May-17 17:33N 29°57' W 090°01'0 0.0
2016-May-17 16:33N 29°57' W 090°01'0 0.0
2016-May-17 15:33N 29°57' W 090°01'4 3.9
2016-May-17 14:33N 29°55' W 089°57'0 0.1
2016-May-17 13:33N 29°55' W 089°57'0 0.0
2016-May-17 12:33N 29°55' W 089°57'0 0.1
2016-May-17 11:31N 29°56' W 089°57'0 0.0
2016-May-17 10:29N 29°56' W 089°57'0 0.3
2016-May-17 09:33N 29°55' W 089°57'10 9.7
2016-May-17 08:33N 29°55' W 090°08'14 0.3
2016-May-15 07:04N 29°59' W 090°24'13 2.7
2016-May-15 02:10N 29°57' W 090°09'2 2.7
2016-May-15 01:33N 29°56' W 090°08'0 0.0
2016-May-15 00:34N 29°56' W 090°08'0 0.0
2016-May-14 23:33N 29°56' W 090°08'0 0.0
2016-May-14 22:33N 29°56' W 090°08'0 0.0
2016-May-14 21:33N 29°56' W 090°08'0 0.0
2016-May-14 20:34N 29°56' W 090°08'0 0.0
2016-May-14 19:34N 29°56' W 090°08'0 0.0
2016-May-14 18:34N 29°56' W 090°08'0 0.0
2016-May-14 17:34N 29°56' W 090°08'0 0.0
2016-May-14 16:34N 29°56' W 090°08'0 0.0
2016-May-14 15:33N 29°56' W 090°08'0 0.0
2016-May-14 14:34N 29°56' W 090°08'0 0.0
2016-May-14 13:34N 29°56' W 090°08'  
Track history (hours):
 
Tides and Currents Weather Stations Pressure Air Temp Water Temp Dewpoint Dewpoint Depression Visibility Wind Speed Wind Dir Waves Ship Positions

Josephine Anne

Owner: E.N. Bisso & Son, Inc., New Orleans, LA. More information available from US FCC via Universal Licensing System and Coast Guard Vessel Documentation Center.

Last reported at 2016-May-24 13:34 UTC. Time now 2016-May-24 13:53 UTC.
Position N 29°57' W 090°01'.

Length 29 m; draft 4.3 m.

Type: Tug. MMSI: 367317270.

Date/timePositionNaut miles runAvg speedWind from/ knotsBaromVisibWave heightAir tempDewpointWater temp
2016-May-24 13:34N 29°57' W 090°01'0 0.0
2016-May-24 12:33N 29°57' W 090°01'4 3.9
2016-May-24 11:33N 29°55' W 089°57'1 0.5
2016-May-24 10:33N 29°55' W 089°56'0 0.4
2016-May-24 09:34N 29°55' W 089°57'0 0.2
2016-May-24 08:26N 29°55' W 089°57'0 0.6
2016-May-24 07:33N 29°55' W 089°56'4 0.3
2016-May-23 20:19N 29°52' W 089°58'4 5.8
2016-May-23 19:34N 29°48' W 090°01'1 0.7
2016-May-23 18:30N 29°47' W 090°01'8 1.9
2016-May-23 14:12N 29°53' W 089°54'4 4.2
2016-May-23 13:19N 29°53' W 089°58'4 0.2
2016-May-22 09:34N 29°57' W 089°60'6 6.3
2016-May-22 08:33N 29°54' W 090°07'8 0.3
2016-May-21 06:26N 29°49' W 090°00'5 0.7
2016-May-20 23:30N 29°52' W 089°57'3 0.9
2016-May-20 19:28N 29°56' W 089°58'0 0.0
2016-May-20 18:33N 29°56' W 089°58'3 3.1
2016-May-20 17:33N 29°53' W 089°58'2 0.5
2016-May-20 14:28N 29°51' W 089°59'5 5.5
2016-May-20 13:33N 29°56' W 089°59'0 0.0
2016-May-20 12:33N 29°56' W 089°59'0 0.1
2016-May-20 11:33N 29°56' W 089°59'2 1.9
2016-May-20 10:33N 29°57' W 090°01'0 0.0
2016-May-20 09:33N 29°57' W 090°01'0 0.0
2016-May-20 08:33N 29°57' W 090°01'0 0.0
2016-May-20 07:33N 29°57' W 090°01'5 4.7
2016-May-20 06:33N 29°55' W 089°56'1 1.1
2016-May-20 05:33N 29°55' W 089°55'7 0.7
2016-May-19 19:33N 29°50' W 089°60'6 6.3
2016-May-19 18:34N 29°55' W 089°57'4 4.1
2016-May-19 17:34N 29°57' W 090°01'0 0.0
2016-May-19 16:34N 29°57' W 090°01'0 0.0
2016-May-19 15:34N 29°57' W 090°01'4 4.1
2016-May-19 14:34N 29°55' W 089°57'0 0.3
2016-May-19 13:33N 29°55' W 089°56'3 0.4
2016-May-19 07:15N 29°53' W 089°54'5 2.7
2016-May-19 05:32N 29°51' W 089°59'2 0.2
2016-May-18 17:33N 29°53' W 089°58'3 3.0
2016-May-18 16:34N 29°55' W 089°56'3 2.9
2016-May-18 15:33N 29°56' W 089°59'0 0.4
2016-May-18 14:33N 29°56' W 089°59'0 0.4
2016-May-18 13:33N 29°56' W 089°59'4 3.8
2016-May-18 12:33N 29°56' W 090°04'1 1.4
2016-May-18 11:33N 29°55' W 090°04'0 0.0
2016-May-18 10:33N 29°55' W 090°04'0 0.0
2016-May-18 09:33N 29°55' W 090°04'0 0.0
2016-May-18 08:34N 29°55' W 090°04'0 0.0
2016-May-18 07:33N 29°55' W 090°04'0 0.0
2016-May-18 06:33N 29°55' W 090°04'1 1.3
2016-May-18 05:33N 29°55' W 090°06'1 0.8
2016-May-18 04:33N 29°55' W 090°05'1 0.5
2016-May-18 03:33N 29°55' W 090°04'0 0.0
2016-May-18 02:33N 29°55' W 090°04'2 1.8
2016-May-18 01:33N 29°57' W 090°04'2 1.5
2016-May-18 00:33N 29°57' W 090°02'3 3.0
2016-May-17 23:33N 29°55' W 090°04'0 0.0
2016-May-17 22:33N 29°55' W 090°04'4 4.5
2016-May-17 21:33N 29°57' W 090°09'0 0.2
2016-May-17 19:07N 29°57' W 090°09'4 6.3
2016-May-17 18:33N 29°55' W 090°05'5 4.5
2016-May-17 17:33N 29°57' W 090°01'0 0.0
2016-May-17 16:33N 29°57' W 090°01'0 0.0
2016-May-17 15:33N 29°57' W 090°01'4 3.9
2016-May-17 14:33N 29°55' W 089°57'0 0.1
2016-May-17 13:33N 29°55' W 089°57'0 0.0
2016-May-17 12:33N 29°55' W 089°57'0 0.1
2016-May-17 11:31N 29°56' W 089°57'0 0.0
2016-May-17 10:29N 29°56' W 089°57'0 0.3
2016-May-17 09:33N 29°55' W 089°57'10 9.7
2016-May-17 08:33N 29°55' W 090°08'14 0.3
2016-May-15 07:04N 29°59' W 090°24'13 2.7
2016-May-15 02:10N 29°57' W 090°09'2 2.7
2016-May-15 01:33N 29°56' W 090°08'0 0.0
2016-May-15 00:34N 29°56' W 090°08'0 0.0
2016-May-14 23:33N 29°56' W 090°08'0 0.0
2016-May-14 22:33N 29°56' W 090°08'0 0.0
2016-May-14 21:33N 29°56' W 090°08'0 0.0
2016-May-14 20:34N 29°56' W 090°08'0 0.0
2016-May-14 19:34N 29°56' W 090°08'0 0.0
2016-May-14 18:34N 29°56' W 090°08'0 0.0
2016-May-14 17:34N 29°56' W 090°08'0 0.0
2016-May-14 16:34N 29°56' W 090°08'0 0.0
2016-May-14 15:33N 29°56' W 090°08'0 0.0
2016-May-14 14:34N 29°56' W 090°08'0 0.0
2016-May-14 13:34N 29°56' W 090°08'  

Dump ship's entire track history